Terminal Aerodrome Forecast
Issued by NWS Cleveland, OH

Home | Current Version | Previous Version | Graphics & Text | Print | Product List | Glossary On
Versions: 1 2 3 4 5 6 7 8 9 10 11 12 13 14 15 16 17 18 19 20 21 22
000
FTUS41 KCLE 151944 AAA
TAFMFD
TAF AMD
KMFD 151944Z 1520/1618 21012G20KT 4SM -RA BR SCT007 OVC015
     FM152200 22010KT 2SM RA BR VCTS OVC007CB WS020/24045KT
      TEMPO 1522/1602 1SM RA BR OVC007
     FM160300 26011KT 2SM RA OVC007 WS020/25045KT
     FM160700 29010KT 4SM BR OVC007
     FM161600 32012KT P6SM BKN010=

USA.gov is the U.S. government's official web portal to all federal, state and local government web resources and services.